createdAt,value
2022-12-08T00:01:10.316Z,2.23
2022-12-08T00:03:37.712Z,1.83
2022-12-08T00:06:24.442Z,1.90
2022-12-08T00:09:10.306Z,2.63
2022-12-08T00:11:37.200Z,2.38
2022-12-08T00:14:03.632Z,2.40
2022-12-08T00:16:30.143Z,2.17
2022-12-08T00:18:56.574Z,2.60
2022-12-08T00:21:22.904Z,2.28
2022-12-08T00:23:49.308Z,2.45
2022-12-08T00:26:15.707Z,2.77
2022-12-08T00:28:42.164Z,2.60
2022-12-08T00:31:10.301Z,2.72
2022-12-08T00:33:36.869Z,2.78
2022-12-08T00:36:11.938Z,3.03
2022-12-08T00:38:39.700Z,2.90
2022-12-08T00:41:13.534Z,2.80
2022-12-08T00:43:39.992Z,3.05
2022-12-08T00:46:06.511Z,3.35
2022-12-08T00:48:33.030Z,3.45
2022-12-08T00:50:59.382Z,3.33
2022-12-08T00:53:25.751Z,4.07
2022-12-08T00:55:52.089Z,3.67
2022-12-08T00:58:18.463Z,3.33
2022-12-08T01:00:44.895Z,3.83
2022-12-08T01:03:12.587Z,3.97
2022-12-08T01:05:39.656Z,3.92
2022-12-08T01:08:07.248Z,4.00
2022-12-08T01:10:38.353Z,3.20
2022-12-08T01:13:05.176Z,3.58
2022-12-08T01:15:31.550Z,3.40
2022-12-08T01:17:57.962Z,3.58
2022-12-08T01:20:24.430Z,3.30
2022-12-08T01:22:50.851Z,3.15
2022-12-08T01:25:17.437Z,3.30
2022-12-08T01:27:43.811Z,3.27
2022-12-08T01:30:10.623Z,3.55
2022-12-08T01:32:36.982Z,3.70
2022-12-08T01:35:03.541Z,3.55
2022-12-08T01:37:29.974Z,3.67
2022-12-08T01:39:56.309Z,3.40
2022-12-08T01:42:23.418Z,4.05
2022-12-08T01:44:54.908Z,3.05
2022-12-08T01:47:24.327Z,2.70
2022-12-08T01:49:50.988Z,2.60
2022-12-08T01:52:29.062Z,2.97
2022-12-08T01:55:05.271Z,2.47
2022-12-08T01:57:36.053Z,2.00
2022-12-08T02:00:08.833Z,2.05
2022-12-08T02:02:52.517Z,2.05
2022-12-08T02:05:22.546Z,2.07
2022-12-08T02:07:49.999Z,2.00
2022-12-08T02:10:20.939Z,1.90
2022-12-08T02:12:50.540Z,1.80
2022-12-08T02:15:18.463Z,1.80
2022-12-08T02:17:56.967Z,1.70
2022-12-08T02:20:37.781Z,1.92
2022-12-08T02:23:23.593Z,1.90
2022-12-08T02:26:19.405Z,2.55
2022-12-08T02:29:04.091Z,2.28
2022-12-08T02:32:07.803Z,2.47
2022-12-08T02:34:49.500Z,2.53
2022-12-08T02:37:40.811Z,2.35
2022-12-08T02:40:13.252Z,2.95
2022-12-08T02:42:58.634Z,2.75
2022-12-08T02:45:41.579Z,2.43
2022-12-08T02:48:09.138Z,3.03
2022-12-08T02:50:35.612Z,3.30
2022-12-08T02:53:03.860Z,3.47
2022-12-08T02:56:00.363Z,3.38
2022-12-08T02:58:50.308Z,3.53
2022-12-08T03:01:28.201Z,2.88
2022-12-08T03:04:20.836Z,2.47
2022-12-08T03:07:06.167Z,3.00
2022-12-08T03:09:46.732Z,3.15
2022-12-08T03:12:31.219Z,3.00
2022-12-08T03:15:02.269Z,2.53
2022-12-08T03:17:31.055Z,3.00
2022-12-08T03:20:02.222Z,2.67
2022-12-08T03:22:29.171Z,2.72
2022-12-08T03:24:56.887Z,2.23
2022-12-08T03:27:29.426Z,2.20
2022-12-08T03:29:57.858Z,2.17
2022-12-08T03:32:35.167Z,1.90
2022-12-08T03:35:05.682Z,2.40
2022-12-08T03:37:35.626Z,1.63
2022-12-08T03:40:03.793Z,1.60
2022-12-08T03:42:30.358Z,1.70
2022-12-08T03:44:56.838Z,1.45
2022-12-08T03:47:23.267Z,1.27
2022-12-08T03:49:49.659Z,1.23
2022-12-08T03:52:16.091Z,0.85
2022-12-08T03:54:42.535Z,1.35
2022-12-08T03:57:08.929Z,0.98
2022-12-08T03:59:35.287Z,0.75
2022-12-08T04:02:01.673Z,0.63
2022-12-08T04:04:28.026Z,0.70
2022-12-08T04:06:54.424Z,0.75
2022-12-08T04:09:20.775Z,0.57
2022-12-08T04:11:47.154Z,0.50
2022-12-08T04:14:13.593Z,0.37
2022-12-08T04:16:40.057Z,0.43
2022-12-08T04:19:06.651Z,0.65
2022-12-08T04:21:33.296Z,0.40
2022-12-08T04:24:01.544Z,0.40
2022-12-08T04:26:28.206Z,0.40
2022-12-08T04:28:54.643Z,0.40
2022-12-08T04:31:21.135Z,0.30
2022-12-08T04:33:48.612Z,0.50
2022-12-08T04:36:15.126Z,0.60
2022-12-08T04:38:41.528Z,0.40
2022-12-08T04:41:07.979Z,0.30
2022-12-08T04:43:35.641Z,0.32
2022-12-08T04:46:02.017Z,0.60
2022-12-08T04:48:28.398Z,0.32
2022-12-08T04:50:54.844Z,0.53
2022-12-08T04:53:21.330Z,0.60
2022-12-08T04:55:49.636Z,0.40
2022-12-08T04:58:18.434Z,0.90
2022-12-08T05:00:46.368Z,0.90
2022-12-08T05:03:13.717Z,1.00
2022-12-08T05:05:41.454Z,1.33
2022-12-08T05:08:09.283Z,1.13
2022-12-08T05:10:36.191Z,0.88
2022-12-08T05:13:02.582Z,1.20
2022-12-08T05:15:28.913Z,1.20
2022-12-08T05:17:55.300Z,1.10
2022-12-08T05:20:21.961Z,0.60
2022-12-08T05:22:48.308Z,0.50
2022-12-08T05:25:14.986Z,0.50
2022-12-08T05:27:41.985Z,0.57
2022-12-08T05:30:08.690Z,0.50
2022-12-08T05:32:35.011Z,0.22
2022-12-08T05:35:01.379Z,0.40
2022-12-08T05:37:27.766Z,0.30
2022-12-08T05:39:54.217Z,0.37
2022-12-08T05:42:24.570Z,0.40
2022-12-08T05:44:51.499Z,0.30
2022-12-08T05:47:17.837Z,0.40
2022-12-08T05:49:44.862Z,0.52
2022-12-08T05:52:11.267Z,0.30
2022-12-08T05:54:38.079Z,0.30
2022-12-08T05:57:04.479Z,0.35
2022-12-08T05:59:30.929Z,0.25
2022-12-08T06:01:57.358Z,0.40
2022-12-08T06:04:23.726Z,0.60
2022-12-08T06:06:50.182Z,0.30
2022-12-08T06:09:16.594Z,0.40
2022-12-08T06:11:43.023Z,0.35
2022-12-08T06:14:13.327Z,0.38
2022-12-08T06:16:40.001Z,0.30
2022-12-08T06:19:06.492Z,0.40
2022-12-08T06:21:32.931Z,0.35
2022-12-08T06:23:59.363Z,0.50
2022-12-08T06:26:25.738Z,0.40
2022-12-08T06:28:52.317Z,0.30
2022-12-08T06:31:22.152Z,0.30
2022-12-08T06:33:49.281Z,0.20
2022-12-08T06:36:18.634Z,0.30
2022-12-08T06:38:45.043Z,0.25
2022-12-08T06:41:12.481Z,0.50
2022-12-08T06:43:39.467Z,0.30
2022-12-08T06:46:08.400Z,0.22
2022-12-08T06:48:34.882Z,0.20
2022-12-08T06:51:09.646Z,0.28
2022-12-08T06:53:36.038Z,0.30
2022-12-08T06:56:02.467Z,0.43
2022-12-08T06:58:28.936Z,0.25
2022-12-08T07:00:55.512Z,0.40
2022-12-08T07:03:21.945Z,0.30
2022-12-08T07:05:48.620Z,0.60
2022-12-08T07:08:15.074Z,0.20
2022-12-08T07:10:41.601Z,0.30
2022-12-08T07:13:07.972Z,0.40
2022-12-08T07:15:34.384Z,0.40
2022-12-08T07:18:00.937Z,0.40
2022-12-08T07:20:27.912Z,0.50
2022-12-08T07:22:54.599Z,0.50
2022-12-08T07:25:21.236Z,0.65
2022-12-08T07:27:48.153Z,0.70
2022-12-08T07:30:14.950Z,0.73
2022-12-08T07:32:41.375Z,0.85
2022-12-08T07:35:08.798Z,1.20
2022-12-08T07:37:37.352Z,0.95
2022-12-08T07:40:05.727Z,1.27
2022-12-08T07:42:32.673Z,0.97
2022-12-08T07:44:59.404Z,1.17
2022-12-08T07:47:25.751Z,1.10
2022-12-08T07:49:52.116Z,1.30
2022-12-08T07:52:18.536Z,1.23
2022-12-08T07:54:44.910Z,1.30
2022-12-08T07:57:11.372Z,1.33
2022-12-08T07:59:37.739Z,1.40
2022-12-08T08:02:22.694Z,1.00
2022-12-08T08:04:51.005Z,1.40
2022-12-08T08:07:17.557Z,1.67
2022-12-08T08:09:43.993Z,1.52
2022-12-08T08:12:30.175Z,1.40
2022-12-08T08:14:56.779Z,1.40
2022-12-08T08:17:23.223Z,1.02
2022-12-08T08:19:49.728Z,0.93
2022-12-08T08:22:16.122Z,0.70
2022-12-08T08:24:45.073Z,0.80
2022-12-08T08:27:12.185Z,0.63
2022-12-08T08:29:38.635Z,0.80
2022-12-08T08:32:05.573Z,0.77
2022-12-08T08:34:31.895Z,0.60
2022-12-08T08:36:58.389Z,0.77
2022-12-08T08:39:24.866Z,0.60
2022-12-08T08:41:51.227Z,0.50
2022-12-08T08:44:17.659Z,0.30
2022-12-08T08:46:44.225Z,0.30
2022-12-08T08:49:10.604Z,0.50
2022-12-08T08:51:36.952Z,0.40
2022-12-08T08:54:03.307Z,0.32
2022-12-08T08:56:30.480Z,0.30
2022-12-08T08:58:57.038Z,0.40
2022-12-08T09:01:26.858Z,0.50
2022-12-08T09:03:54.403Z,0.38
2022-12-08T09:06:22.043Z,0.32
2022-12-08T09:08:48.811Z,0.30
2022-12-08T09:11:15.900Z,0.35
2022-12-08T09:13:42.344Z,0.30
2022-12-08T09:16:09.592Z,0.30
2022-12-08T09:18:35.999Z,0.30
2022-12-08T09:21:10.223Z,0.40
2022-12-08T09:23:37.100Z,0.30
2022-12-08T09:26:05.033Z,0.30
2022-12-08T09:28:32.142Z,0.38
2022-12-08T09:30:58.653Z,0.50
2022-12-08T09:33:25.254Z,0.77
2022-12-08T09:35:51.618Z,0.55
2022-12-08T09:38:18.364Z,0.40
2022-12-08T09:40:52.991Z,0.82
2022-12-08T09:43:25.247Z,0.60
2022-12-08T09:45:52.382Z,0.53
2022-12-08T09:48:23.217Z,0.70
2022-12-08T09:50:57.241Z,0.73
2022-12-08T09:53:35.891Z,0.52
2022-12-08T09:56:08.967Z,0.57
2022-12-08T09:58:53.705Z,0.60
2022-12-08T10:01:27.472Z,0.70
2022-12-08T10:03:55.933Z,0.40
2022-12-08T10:06:38.454Z,0.50
2022-12-08T10:09:22.949Z,0.47
2022-12-08T10:12:04.780Z,0.90
2022-12-08T10:14:41.192Z,0.57
2022-12-08T10:17:24.187Z,0.60
2022-12-08T10:19:57.547Z,0.50
2022-12-08T10:22:26.735Z,0.55
2022-12-08T10:25:01.138Z,0.53
2022-12-08T10:27:27.977Z,0.52
2022-12-08T10:29:54.363Z,0.30
2022-12-08T10:32:24.258Z,0.30
2022-12-08T10:35:08.908Z,0.30
2022-12-08T10:37:36.068Z,0.27
2022-12-08T10:40:08.936Z,0.35
2022-12-08T10:42:39.693Z,0.30
2022-12-08T10:45:09.160Z,0.20
2022-12-08T10:47:38.244Z,0.30
2022-12-08T10:50:44.393Z,0.30
2022-12-08T10:53:25.127Z,0.20
2022-12-08T10:56:05.203Z,0.20
2022-12-08T10:58:36.039Z,0.40
2022-12-08T11:01:11.918Z,0.40
2022-12-08T11:03:58.276Z,0.30
2022-12-08T11:06:34.343Z,0.20
2022-12-08T11:09:04.572Z,0.20
2022-12-08T11:12:06.018Z,0.20
2022-12-08T11:14:46.195Z,0.20
2022-12-08T11:17:15.876Z,0.30
2022-12-08T11:19:45.330Z,0.30
2022-12-08T11:22:37.444Z,0.20
2022-12-08T11:25:21.473Z,0.40
2022-12-08T11:27:50.511Z,0.25
2022-12-08T11:30:19.734Z,0.20
2022-12-08T11:32:50.851Z,0.20
2022-12-08T11:35:34.514Z,0.30
2022-12-08T11:38:22.674Z,0.50
2022-12-08T11:41:03.307Z,0.30
2022-12-08T11:43:48.272Z,0.40
2022-12-08T11:46:21.242Z,0.30
2022-12-08T11:49:02.736Z,0.40
2022-12-08T11:51:37.297Z,0.40
2022-12-08T11:54:11.359Z,0.50
2022-12-08T11:56:46.865Z,0.50
2022-12-08T11:59:29.398Z,0.70
2022-12-08T12:02:01.965Z,0.60
2022-12-08T12:04:37.423Z,0.77
2022-12-08T12:07:24.588Z,0.82
2022-12-08T12:10:12.648Z,0.80
2022-12-08T12:13:00.690Z,0.93
2022-12-08T12:15:51.321Z,0.60
2022-12-08T12:18:41.040Z,0.73
2022-12-08T12:21:18.358Z,0.50
2022-12-08T12:23:57.196Z,0.40
2022-12-08T12:26:31.087Z,0.40
2022-12-08T12:28:57.436Z,0.30
2022-12-08T12:31:47.251Z,0.20
2022-12-08T12:34:30.432Z,0.20
2022-12-08T12:37:12.918Z,0.20
2022-12-08T12:40:00.139Z,0.25
2022-12-08T12:42:40.710Z,0.23
2022-12-08T12:45:29.815Z,0.20
2022-12-08T12:47:57.092Z,0.20
2022-12-08T12:50:41.572Z,0.20
2022-12-08T12:53:17.271Z,0.28
2022-12-08T12:55:56.013Z,0.30
2022-12-08T12:58:28.469Z,0.35
2022-12-08T13:01:10.056Z,0.30
2022-12-08T13:03:42.558Z,0.30
2022-12-08T13:06:14.820Z,0.50
2022-12-08T13:08:50.954Z,0.50
2022-12-08T13:11:17.822Z,0.75
2022-12-08T13:13:59.098Z,0.82
2022-12-08T13:16:27.817Z,0.90
2022-12-08T13:19:05.527Z,0.80
2022-12-08T13:21:35.783Z,0.80
2022-12-08T13:24:14.158Z,0.70
2022-12-08T13:26:48.928Z,0.60
2022-12-08T13:29:26.013Z,0.57
2022-12-08T13:31:52.365Z,0.63
2022-12-08T13:34:34.024Z,0.60
2022-12-08T13:37:13.496Z,0.60
2022-12-08T13:39:39.856Z,0.40
2022-12-08T13:42:06.283Z,0.30
2022-12-08T13:48:20.464Z,0.30
2022-12-08T13:59:34.684Z,0.60
2022-12-08T14:02:14.906Z,0.50
2022-12-08T14:05:16.982Z,0.77
2022-12-08T14:07:33.658Z,0.77
2022-12-08T14:10:03.466Z,0.70
2022-12-08T14:12:31.453Z,0.70
2022-12-08T14:15:06.504Z,0.90
2022-12-08T14:17:33.589Z,1.33
2022-12-08T14:20:19.851Z,1.33
2022-12-08T14:22:46.825Z,1.08
2022-12-08T14:25:15.843Z,1.40
2022-12-08T14:27:43.279Z,1.20
2022-12-08T14:30:18.321Z,1.40
2022-12-08T14:32:48.905Z,1.27
2022-12-08T14:35:30.051Z,1.33
2022-12-08T14:38:12.118Z,1.38
2022-12-08T14:40:39.754Z,1.30
2022-12-08T14:43:20.371Z,1.70
2022-12-08T14:45:48.003Z,1.35
2022-12-08T14:48:39.506Z,1.52
2022-12-08T14:51:11.687Z,1.35
2022-12-08T14:53:41.441Z,1.33
2022-12-08T14:56:20.188Z,1.75
2022-12-08T14:58:49.054Z,1.55
2022-12-08T15:01:21.581Z,1.77
2022-12-08T15:03:51.149Z,1.45
2022-12-08T15:06:22.009Z,1.80
2022-12-08T15:08:55.286Z,2.05
2022-12-08T15:11:21.710Z,2.08
2022-12-08T15:13:51.115Z,1.80
2022-12-08T15:16:36.019Z,2.33
2022-12-08T15:19:16.457Z,1.70
2022-12-08T15:21:45.735Z,2.10
2022-12-08T15:24:14.131Z,1.90
2022-12-08T15:26:48.978Z,2.15
2022-12-08T15:29:27.456Z,2.35
2022-12-08T15:31:59.386Z,2.07
2022-12-08T15:34:25.983Z,2.45
2022-12-08T15:36:54.701Z,2.30
2022-12-08T15:39:36.059Z,2.30
2022-12-08T15:42:04.732Z,2.22
2022-12-08T15:44:32.555Z,2.13
2022-12-08T15:46:59.882Z,2.40
2022-12-08T15:49:26.870Z,2.80
2022-12-08T15:52:01.969Z,2.65
2022-12-08T15:54:36.879Z,3.03
2022-12-08T15:57:18.989Z,2.30
2022-12-08T15:59:45.972Z,2.78
2022-12-08T16:02:17.933Z,2.90
2022-12-08T16:05:33.377Z,2.60
2022-12-08T16:07:37.951Z,2.78
2022-12-08T16:10:06.496Z,2.97
2022-12-08T16:15:58.520Z,3.08
2022-12-08T16:18:29.857Z,3.42
2022-12-08T16:23:44.548Z,3.63
2022-12-08T16:26:28.482Z,3.47
2022-12-08T16:29:01.882Z,4.05
2022-12-08T16:31:28.286Z,3.28
2022-12-08T16:33:54.682Z,3.65
2022-12-08T16:36:21.012Z,3.43
2022-12-08T16:38:47.382Z,4.13
2022-12-08T16:41:33.695Z,3.28
2022-12-08T16:44:06.013Z,4.13
2022-12-08T16:46:32.670Z,4.03
2022-12-08T16:48:59.172Z,3.57
2022-12-08T16:51:27.204Z,4.10
2022-12-08T16:53:58.319Z,4.07
2022-12-08T16:56:31.912Z,4.43
2022-12-08T16:58:59.441Z,4.20
2022-12-08T17:01:25.957Z,4.50
2022-12-08T17:04:22.522Z,4.30
2022-12-08T17:06:38.820Z,3.47
2022-12-08T17:09:05.337Z,4.05
2022-12-08T17:11:37.449Z,3.90
2022-12-08T17:14:09.047Z,4.13
2022-12-08T17:16:35.410Z,3.22
2022-12-08T17:19:01.815Z,3.47
2022-12-08T17:21:28.241Z,3.67
2022-12-08T17:23:54.739Z,3.08
2022-12-08T17:26:21.085Z,3.50
2022-12-08T17:29:02.758Z,3.65
2022-12-08T17:31:31.776Z,4.57
2022-12-08T17:34:03.257Z,3.80
2022-12-08T17:36:29.850Z,4.10
2022-12-08T17:38:58.500Z,4.17
2022-12-08T17:41:24.828Z,4.13
2022-12-08T17:43:51.215Z,3.88
2022-12-08T17:46:21.334Z,3.58
2022-12-08T17:48:48.095Z,3.53
2022-12-08T17:51:15.292Z,3.93
2022-12-08T17:53:41.755Z,3.53
2022-12-08T17:56:17.384Z,3.50
2022-12-08T17:58:43.877Z,3.67
2022-12-08T18:01:11.661Z,3.40
2022-12-08T18:03:38.847Z,3.90
2022-12-08T18:06:11.365Z,4.75
2022-12-08T18:08:38.240Z,3.90
2022-12-08T18:11:05.808Z,3.72
2022-12-08T18:13:32.149Z,4.00
2022-12-08T18:15:58.560Z,3.77
2022-12-08T18:18:25.013Z,4.65
2022-12-08T18:20:51.461Z,3.92
2022-12-08T18:23:18.592Z,4.10
2022-12-08T18:25:45.191Z,4.50
2022-12-08T18:28:11.618Z,4.37
2022-12-08T18:30:39.556Z,4.63
2022-12-08T18:33:07.576Z,5.28
2022-12-08T18:35:34.133Z,5.70
2022-12-08T18:38:00.530Z,6.53
2022-12-08T18:40:27.982Z,6.63
2022-12-08T18:42:54.645Z,6.15
2022-12-08T18:45:22.679Z,6.45
2022-12-08T18:47:50.963Z,6.40
2022-12-08T18:50:17.863Z,6.95
2022-12-08T18:52:45.695Z,6.33
2022-12-08T18:55:12.652Z,6.40
2022-12-08T18:57:42.332Z,6.15
2022-12-08T19:00:12.208Z,7.90
2022-12-08T19:02:39.762Z,8.05
2022-12-08T19:05:07.757Z,7.63
2022-12-08T19:07:34.588Z,8.02
2022-12-08T19:10:01.003Z,8.32
2022-12-08T19:12:27.461Z,7.35
2022-12-08T19:14:53.967Z,6.95
2022-12-08T19:17:21.067Z,8.20
2022-12-08T19:19:47.621Z,7.65
2022-12-08T19:22:14.186Z,7.50
2022-12-08T19:24:40.628Z,7.05
2022-12-08T19:27:07.227Z,7.85
2022-12-08T19:29:33.761Z,7.73
2022-12-08T19:32:00.388Z,8.27
2022-12-08T19:34:26.838Z,7.60
2022-12-08T19:36:53.275Z,8.20
2022-12-08T19:39:40.729Z,8.05
2022-12-08T19:42:33.842Z,8.00
2022-12-08T19:45:05.843Z,7.85
2022-12-08T19:47:32.321Z,8.73
2022-12-08T19:50:17.358Z,9.35
2022-12-08T19:52:44.805Z,8.55
2022-12-08T19:55:11.796Z,7.73
2022-12-08T19:57:38.414Z,9.23
2022-12-08T20:00:07.208Z,9.05
2022-12-08T20:02:33.761Z,8.93
2022-12-08T20:05:00.323Z,8.98
2022-12-08T20:07:26.785Z,9.40
2022-12-08T20:09:53.219Z,10.13
2022-12-08T20:12:19.574Z,9.50
2022-12-08T20:14:46.405Z,8.98
2022-12-08T20:17:12.998Z,9.57
2022-12-08T20:19:39.460Z,10.33
2022-12-08T20:22:05.894Z,10.32
2022-12-08T20:24:32.251Z,9.63
2022-12-08T20:26:58.698Z,9.55
2022-12-08T20:29:25.074Z,9.60
2022-12-08T20:31:51.568Z,9.40
2022-12-08T20:34:19.226Z,9.57
2022-12-08T20:36:46.195Z,9.35
2022-12-08T20:39:14.190Z,9.85
2022-12-08T20:41:41.927Z,8.23
2022-12-08T20:44:08.838Z,9.50
2022-12-08T20:46:35.344Z,8.50
2022-12-08T20:49:03.940Z,9.52
2022-12-08T20:51:32.299Z,8.80
2022-12-08T20:53:59.260Z,10.18
2022-12-08T20:56:26.761Z,8.83
2022-12-08T20:58:53.922Z,9.73
2022-12-08T21:01:22.697Z,9.57
2022-12-08T21:03:49.910Z,9.63
2022-12-08T21:06:16.636Z,8.77
2022-12-08T21:08:43.098Z,9.77
2022-12-08T21:11:10.098Z,10.02
2022-12-08T21:13:37.315Z,10.75
2022-12-08T21:16:04.918Z,10.07
2022-12-08T21:18:39.015Z,10.27
2022-12-08T21:21:13.992Z,10.30
2022-12-08T21:23:42.398Z,10.05
2022-12-08T21:26:13.426Z,9.82
2022-12-08T21:28:40.060Z,9.90
2022-12-08T21:31:11.741Z,11.05
2022-12-08T21:33:38.853Z,10.63
2022-12-08T21:36:09.449Z,10.75
2022-12-08T21:38:37.504Z,11.63
2022-12-08T21:41:13.300Z,11.23
2022-12-08T21:43:40.102Z,10.73
2022-12-08T21:46:06.669Z,10.63
2022-12-08T21:48:33.363Z,11.60
2022-12-08T21:51:04.880Z,10.40
2022-12-08T21:53:31.414Z,11.18
2022-12-08T21:55:57.802Z,10.82
2022-12-08T21:58:24.224Z,10.90
2022-12-08T22:00:50.730Z,11.65
2022-12-08T22:03:17.435Z,12.40
2022-12-08T22:05:44.062Z,11.60
2022-12-08T22:08:10.716Z,11.13
2022-12-08T22:10:38.348Z,10.77
2022-12-08T22:13:04.965Z,11.77
2022-12-08T22:15:32.638Z,11.95
2022-12-08T22:17:59.215Z,11.30
2022-12-08T22:20:25.719Z,10.95
2022-12-08T22:22:52.049Z,11.40
2022-12-08T22:25:18.461Z,11.35
2022-12-08T22:27:44.843Z,12.07
2022-12-08T22:30:12.131Z,11.50
2022-12-08T22:32:38.902Z,12.27
2022-12-08T22:35:05.852Z,11.73
2022-12-08T22:37:32.309Z,11.63
2022-12-08T22:39:58.709Z,11.52
2022-12-08T22:42:25.144Z,11.38
2022-12-08T22:44:51.488Z,11.82
2022-12-08T22:47:17.838Z,11.07
2022-12-08T22:49:44.167Z,11.52
2022-12-08T22:52:10.570Z,12.30
2022-12-08T22:54:36.921Z,11.85
2022-12-08T22:57:03.693Z,11.30
2022-12-08T22:59:30.431Z,12.87
2022-12-08T23:01:56.893Z,12.68
2022-12-08T23:04:23.464Z,11.60
2022-12-08T23:06:50.303Z,11.13
2022-12-08T23:09:17.056Z,11.27
2022-12-08T23:11:44.168Z,11.07
2022-12-08T23:14:10.723Z,11.50
2022-12-08T23:16:37.634Z,12.45
2022-12-08T23:19:04.213Z,11.65
2022-12-08T23:21:30.767Z,11.75
2022-12-08T23:23:57.264Z,12.00
2022-12-08T23:26:26.837Z,12.35
2022-12-08T23:28:54.149Z,11.18
2022-12-08T23:31:20.974Z,11.82
2022-12-08T23:33:48.120Z,11.80
2022-12-08T23:36:16.581Z,12.27
2022-12-08T23:38:43.805Z,11.85
2022-12-08T23:41:12.577Z,11.93
2022-12-08T23:43:44.320Z,12.25
2022-12-08T23:46:11.006Z,11.68
2022-12-08T23:48:37.465Z,12.37
2022-12-08T23:51:03.900Z,12.77
2022-12-08T23:53:31.549Z,11.45
2022-12-08T23:56:00.349Z,11.98
2022-12-08T23:58:26.961Z,12.63
